Middle Georgia Regional Airport
KMCN : rendu visible

Aérodrome :











RETROUVEZ-NOUS SUR...

 
LOGIN :

S'inscrire | Disclaimer

   EN    FR    IT 

 









Légende :    VFR   VFR Marginal   IFR   IFR Intensif   IFR Très Intensif
Visi : 
Plafond : 
>= 8 km
>= 3000ft
5 à 8 km
1000 à 3000 ft
1500m à 5 km
500 à 1000 ft
800 à 1500m
200 à 500 ft
< 800m
< 200 ft
Symboles :   Orages  Brouillard  Fortes neiges  Fortes précipitations  Vent > 20 kt






- Altitude de l'aérodrome : 354 ft
- Code IATA : MCN


KMCN - Middle Georgia Regional

DERNIER METAR :
  • 311953Z 02010KT 10SM FEW060 32/16 A3003 RMK AO2 SLP163 T03220161

METARs EXPIRÉS :
  • 311853Z 33008KT 10SM CLR 32/14 A3004 RMK AO2 SLP167 T03170144
  • 311753Z 35005KT 10SM CLR 31/14 A3005 RMK AO2 SLP170 T03060144 10311 20200 58003

TAF KMCN
Valide du 31 à 18h jusqu'au 01 à 18h UTC


311731Z 3118/0118 01007KT P6SM FEW050 FEW250
FM010000 05004KT P6SM FEW250
FIR KZTL / Amérique du Nord



MET'MAP, la Météo Aéronautique d'un coup d'oeil ! - Copyright ORBIFLY Décembre 2007 - Disclaimer

ORBIFLY MET'MAP TEAM :

Programmation & Développement : Alexandra Zaïnal
Sur une idée originale de : Baudouin d'Aumeries
Assistance à la programmation : Marc-Olivier Méhu
Soutien technique & logistique : Manuel Goepfert

Contact : metmap@orbifly.com




SOURCES & CREDITS :

   NOAA       Earth
Advisory